Time;durP1;ratioP1;P1;durP2;ratioP2;P2;SDS_P1;SDS_P2;PMS_P1;PMS_P2;Temp;Humidity;BMP_temperature;BMP_pressure;BME280_temperature;BME280_humidity;BME280_pressure;Samples;Min_cycle;Max_cycle;Signal;HPM_P1;HPM_P2
2023/02/07 10:23:18;;;;;;;6.70;2.80;;;;;;;0.58;49.58;102304.88;102619;1303;74421;-68
2023/02/07 10:26:01;;;;;;;9.00;3.40;;;;;;;0.59;49.83;102303.48;104675;1264;71125;-68
2023/02/07 10:29:06;;;;;;;7.90;3.70;;;;;;;0.60;49.49;102300.03;104708;1264;73885;-68
2023/02/07 10:31:36;;;;;;;9.10;4.20;;;;;;;0.52;49.63;102304.40;104896;1264;60493;-67
2023/02/07 10:34:11;;;;;;;8.90;4.10;;;;;;;0.46;50.28;102309.96;104903;1263;61292;-68
2023/02/07 10:36:38;;;;;;;11.90;4.30;;;;;;;0.43;50.72;102309.98;104658;1269;73892;-68
2023/02/07 10:39:06;;;;;;;10.20;3.70;;;;;;;0.47;50.69;102310.84;104903;1269;70516;-69
2023/02/07 10:41:38;;;;;;;8.80;3.90;;;;;;;0.50;50.08;102309.95;104725;1264;73529;-68
2023/02/07 10:44:08;;;;;;;9.10;3.10;;;;;;;0.51;48.90;102309.77;105402;1263;60574;-68
2023/02/07 10:46:35;;;;;;;7.10;2.50;;;;;;;0.46;48.21;102317.73;105803;1264;61357;-67
2023/02/07 10:49:02;;;;;;;10.40;4.20;;;;;;;0.37;48.76;102323.67;104637;1265;72787;-67
2023/02/07 10:51:44;;;;;;;9.90;2.70;;;;;;;0.31;48.49;102323.36;105081;1264;71273;-69
2023/02/07 10:54:19;;;;;;;6.50;2.30;;;;;;;0.26;48.61;102323.91;105963;1264;73854;-66
2023/02/07 10:56:49;;;;;;;10.20;3.70;;;;;;;0.27;48.25;102328.89;105011;1264;60192;-67
2023/02/07 10:59:45;;;;;;;7.80;2.30;;;;;;;0.28;47.92;102326.33;104914;1267;60293;-69
2023/02/07 11:02:39;;;;;;;;;;;;;;;0.26;47.68;102325.12;105085;1264;73011;-68
2023/02/07 11:05:15;;;;;;;7.80;2.30;;;;;;;0.21;48.01;102323.77;105154;1269;71303;-67
2023/02/07 14:15:27;;;;;;;10.70;5.80;;;;;;;0.13;50.87;102470.00;104579;1266;74126;-67
2023/02/07 14:17:55;;;;;;;10.40;3.80;;;;;;;0.76;49.38;102471.95;104879;1267;71163;-67
2023/02/07 14:20:35;;;;;;;9.00;3.60;;;;;;;0.99;48.46;102477.53;104437;1272;73434;-68
2023/02/07 14:23:05;;;;;;;7.70;4.00;;;;;;;0.85;48.28;102477.44;104638;1266;60496;-67
2023/02/07 14:25:32;;;;;;;8.00;4.00;;;;;;;0.56;48.55;102482.77;104739;1267;61118;-67
2023/02/07 14:28:07;;;;;;;6.90;2.90;;;;;;;0.24;48.28;102484.98;104314;1267;73237;-66
2023/02/07 14:30:55;;;;;;;11.00;3.70;;;;;;;-0.05;48.95;102494.20;104614;1270;71321;-65
2023/02/07 14:33:34;;;;;;;8.30;3.50;;;;;;;-0.31;49.49;102495.61;104559;1272;73613;-65
2023/02/07 14:36:08;;;;;;;9.80;2.90;;;;;;;-0.53;50.03;102502.52;104467;1274;60634;-65
2023/02/07 14:38:37;;;;;;;8.70;3.20;;;;;;;-0.71;50.65;102512.67;105522;1263;61124;-64
2023/02/07 14:41:08;;;;;;;7.90;3.70;;;;;;;-0.84;51.03;102520.41;104678;1266;73986;-66
2023/02/07 14:43:53;;;;;;;8.30;3.10;;;;;;;-0.95;51.41;102526.94;104482;1263;71105;-65
2023/02/07 14:46:40;;;;;;;9.00;4.00;;;;;;;-1.07;51.78;102534.30;104689;1263;72706;-65
2023/02/07 14:49:18;;;;;;;9.80;3.10;;;;;;;-1.18;51.96;102539.95;105480;1263;60685;-65
2023/02/07 14:51:56;;;;;;;8.80;2.90;;;;;;;-1.28;52.17;102550.27;104476;1263;61077;-66
2023/02/07 14:54:39;;;;;;;8.70;2.90;;;;;;;-1.36;52.46;102555.91;104833;1263;73943;-68
2023/02/07 14:57:25;;;;;;;8.60;3.40;;;;;;;-1.44;52.93;102564.98;105748;1264;71304;-66
2023/02/07 15:00:14;;;;;;;9.20;3.30;;;;;;;-1.52;53.03;102569.43;105566;1266;73517;-65
2023/02/07 15:02:48;;;;;;;6.20;2.70;;;;;;;-1.61;53.17;102568.52;104511;1266;61337;-67
2023/02/07 15:05:16;;;;;;;10.40;3.60;;;;;;;-1.68;53.36;102577.42;104661;1266;61051;-68
2023/02/07 15:07:45;;;;;;;9.50;4.20;;;;;;;-1.74;53.56;102582.20;105568;1269;76756;-70
2023/02/07 15:10:23;;;;;;;9.20;2.60;;;;;;;-1.79;53.68;102584.77;106117;1266;70251;-65
2023/02/07 15:12:51;;;;;;;13.00;4.10;;;;;;;-1.85;53.94;102585.40;104661;1264;72852;-68
2023/02/07 15:15:23;;;;;;;10.00;3.30;;;;;;;-1.91;54.06;102591.90;105444;1267;60682;-68
2023/02/07 15:17:51;;;;;;;8.30;3.40;;;;;;;-1.96;54.15;102597.54;104958;1266;61608;-67
2023/02/07 15:20:20;;;;;;;7.50;2.70;;;;;;;-2.01;54.34;102601.98;105004;1267;74034;-68
2023/02/07 15:22:48;;;;;;;8.50;3.80;;;;;;;-2.06;54.48;102608.29;104916;1266;71146;-68
2023/02/07 15:25:16;;;;;;;10.10;4.20;;;;;;;-2.12;54.50;102613.40;104702;1264;73436;-66
2023/02/07 15:28:04;;;;;;;9.80;4.60;;;;;;;-2.18;54.53;102620.75;105438;1266;60508;-67
2023/02/07 15:30:32;;;;;;;8.10;3.70;;;;;;;-2.23;54.83;102623.63;104646;1263;61390;-67
2023/02/07 15:32:59;;;;;;;8.30;2.80;;;;;;;-2.27;55.06;102628.58;104527;1267;74933;-68
2023/02/07 15:35:28;;;;;;;11.60;4.40;;;;;;;-2.28;55.20;102635.44;104756;1264;70245;-68
2023/02/07 15:38:13;;;;;;;10.90;4.50;;;;;;;-2.26;55.43;102636.67;104690;1266;72702;-64
2023/02/07 15:40:41;;;;;;;7.80;3.70;;;;;;;-2.23;55.37;102639.45;105690;1264;60434;-64
2023/02/07 15:43:31;;;;;;;9.70;3.90;;;;;;;-2.23;55.33;102639.45;104810;1267;61519;-68
2023/02/07 15:46:08;;;;;;;11.10;3.50;;;;;;;-2.25;55.56;102642.86;104935;1265;75634;-63
2023/02/07 15:48:53;;;;;;;12.30;5.60;;;;;;;-2.27;55.84;102644.91;104549;1263;70259;-70
2023/02/07 15:51:30;;;;;;;15.80;5.50;;;;;;;-2.29;55.91;102644.89;104619;1263;72631;-69
2023/02/07 15:53:58;;;;;;;10.30;4.20;;;;;;;-2.33;55.71;102652.42;104669;1268;61516;-69
2023/02/07 15:56:28;;;;;;;11.80;5.30;;;;;;;-2.38;55.83;102650.65;104677;1263;61562;-68
2023/02/07 15:58:58;;;;;;;10.10;4.90;;;;;;;-2.43;55.73;102654.71;104852;1263;73725;-67
2023/02/07 16:01:28;;;;;;;11.30;4.60;;;;;;;-2.47;55.82;102653.65;105337;1263;71340;-65
2023/02/07 16:03:56;;;;;;;13.70;6.00;;;;;;;-2.50;55.86;102656.89;104971;1266;73757;-68
2023/02/07 16:06:27;;;;;;;8.50;3.20;;;;;;;-2.51;56.14;102659.11;104740;1266;61768;-66
2023/02/07 16:08:56;;;;;;;8.60;3.90;;;;;;;-2.54;55.95;102657.52;105495;1263;61161;-66
2023/02/07 16:11:25;;;;;;;7.00;3.00;;;;;;;-2.58;55.84;102656.61;104586;1263;74988;-68
2023/02/07 21:27:18;;;;;;;12.40;5.70;;;;;;;-5.18;58.25;102996.38;102218;1295;601375;-53
2023/02/07 21:29:47;;;;;;;13.60;5.50;;;;;;;-5.10;57.96;102991.79;104268;1267;61358;-52
2023/02/07 21:32:15;;;;;;;11.30;4.30;;;;;;;-5.14;58.07;102993.22;104294;1270;61111;-52
2023/02/07 21:34:44;;;;;;;14.30;5.30;;;;;;;-5.19;58.08;102990.52;104385;1267;72264;-52
2023/02/07 21:37:12;;;;;;;14.20;6.10;;;;;;;-5.24;58.21;103002.87;105647;1269;71514;-51
2023/02/07 21:39:40;;;;;;;13.70;5.60;;;;;;;-5.29;58.19;103006.70;104427;1269;72993;-52
2023/02/07 21:42:09;;;;;;;14.10;4.30;;;;;;;-5.33;58.36;103007.94;104779;1269;59164;-52
2023/02/07 21:44:37;;;;;;;13.10;5.20;;;;;;;-5.34;58.46;103015.59;104828;1269;60634;-52
2023/02/07 21:47:05;;;;;;;12.30;5.50;;;;;;;-5.29;58.41;103010.80;105378;1269;73527;-51
2023/02/07 21:49:34;;;;;;;8.40;3.20;;;;;;;-5.18;58.18;103013.83;104858;1264;71299;-51
2023/02/07 21:52:02;;;;;;;15.30;4.70;;;;;;;-5.09;57.97;103012.02;104823;1260;74670;-51
2023/02/07 21:54:31;;;;;;;9.30;3.90;;;;;;;-4.99;57.79;103008.85;105176;1265;62138;-51
2023/02/07 21:56:59;;;;;;;10.70;4.50;;;;;;;-4.89;57.62;103007.59;104772;1267;60289;-50
2023/02/07 21:59:28;;;;;;;10.10;4.60;;;;;;;-4.81;57.41;103010.36;105220;1266;74020;-51
2023/02/07 22:01:57;;;;;;;11.50;5.10;;;;;;;-4.71;57.21;103015.57;107729;1258;71258;-50
2023/02/07 22:04:27;;;;;;;10.90;3.50;;;;;;;-4.62;56.81;103017.17;105113;1259;73931;-51
2023/02/07 22:06:55;;;;;;;8.50;4.10;;;;;;;-4.58;56.59;103016.59;105732;1257;62173;-50
2023/02/07 22:09:23;;;;;;;10.20;5.50;;;;;;;-4.55;56.35;103020.60;105228;1257;61239;-49
2023/02/07 22:11:53;;;;;;;12.40;4.70;;;;;;;-4.60;56.38;103026.83;105064;1259;73991;-50
2023/02/07 22:14:23;;;;;;;12.30;4.40;;;;;;;-4.65;56.40;103027.89;105537;1259;70699;-50
2023/02/07 22:16:52;;;;;;;12.10;4.70;;;;;;;-4.70;56.41;103029.84;105085;1259;73641;-50
2023/02/07 22:19:20;;;;;;;11.80;4.60;;;;;;;-4.77;56.40;103028.11;105861;1257;59592;-51
2023/02/07 22:21:49;;;;;;;8.80;4.50;;;;;;;-4.85;56.46;103029.94;105160;1260;60008;-50
2023/02/07 22:24:17;;;;;;;13.50;6.70;;;;;;;-4.91;56.62;103030.63;105283;1259;73934;-50
2023/02/07 22:26:47;;;;;;;11.70;5.30;;;;;;;-4.99;56.72;103030.07;105390;1261;71221;-49
2023/02/07 22:29:16;;;;;;;14.80;5.40;;;;;;;-5.08;56.85;103030.86;105050;1260;73443;-50
2023/02/07 22:31:44;;;;;;;15.80;5.90;;;;;;;-5.17;56.94;103038.83;105801;1258;61133;-49
2023/02/07 22:34:13;;;;;;;6.90;2.40;;;;;;;-5.24;57.05;103043.95;105303;1260;61362;-49
2023/02/07 22:36:42;;;;;;;11.70;4.50;;;;;;;-5.31;57.24;103043.92;105138;1261;74112;-51
2023/02/07 22:39:11;;;;;;;13.10;5.20;;;;;;;-5.36;57.36;103048.57;105534;1258;70952;-50
2023/02/07 22:41:40;;;;;;;13.80;5.70;;;;;;;-5.41;57.43;103048.79;105212;1260;72341;-51
2023/02/07 22:44:08;;;;;;;10.00;4.10;;;;;;;-5.46;57.64;103048.63;105285;1257;61375;-51
2023/02/07 22:46:37;;;;;;;14.10;4.80;;;;;;;-5.51;57.71;103051.23;105302;1257;61036;-50
2023/02/07 22:49:05;;;;;;;14.00;6.10;;;;;;;-5.49;57.76;103049.90;105133;1257;72911;-51
2023/02/07 22:51:35;;;;;;;10.60;4.70;;;;;;;-5.42;57.71;103051.30;105350;1260;71197;-53
2023/02/07 22:54:06;;;;;;;12.60;4.80;;;;;;;-5.36;57.63;103059.18;105963;1260;73681;-50
2023/02/07 22:56:36;;;;;;;12.50;4.30;;;;;;;-5.28;57.59;103064.88;105122;1260;60797;-49
2023/02/07 22:59:04;;;;;;;11.50;4.20;;;;;;;-5.22;57.45;103067.81;105242;1256;61310;-50
2023/02/07 23:01:37;;;;;;;12.50;5.10;;;;;;;-5.14;57.41;103072.13;105174;1257;74042;-50
2023/02/07 23:04:10;;;;;;;13.50;5.10;;;;;;;-5.03;57.42;103075.17;105154;1260;70055;-50
2023/02/07 23:06:38;;;;;;;11.90;3.60;;;;;;;-4.92;57.02;103073.09;105218;1260;73874;-50
2023/02/07 23:09:07;;;;;;;12.60;3.70;;;;;;;-4.84;56.80;103077.58;105347;1257;62120;-50
2023/02/07 23:11:35;;;;;;;9.00;2.70;;;;;;;-4.81;56.57;103082.80;105096;1257;61291;-49
2023/02/07 23:14:04;;;;;;;12.20;5.90;;;;;;;-4.76;56.38;103083.27;105021;1264;74040;-49
2023/02/07 23:16:33;;;;;;;12.90;5.30;;;;;;;-4.74;56.15;103091.37;105203;1260;71269;-50
2023/02/07 23:19:07;;;;;;;12.70;5.60;;;;;;;-4.80;56.06;103097.38;105160;1258;73674;-49
2023/02/07 23:21:35;;;;;;;11.80;5.70;;;;;;;-4.88;56.30;103092.38;105235;1260;60489;-51
2023/02/07 23:24:05;;;;;;;15.50;5.00;;;;;;;-4.94;56.32;103091.85;105084;1260;60558;-51
2023/02/07 23:26:33;;;;;;;12.80;4.90;;;;;;;-5.03;56.56;103096.75;106880;1260;72697;-48
2023/02/07 23:29:03;;;;;;;12.90;5.10;;;;;;;-5.12;56.55;103097.88;107628;1260;70667;-49
2023/02/07 23:31:32;;;;;;;13.00;5.60;;;;;;;-5.20;56.61;103098.99;105087;1261;73790;-49
2023/02/07 23:34:00;;;;;;;14.10;5.90;;;;;;;-5.31;56.83;103103.30;105081;1257;60665;-50
2023/02/07 23:36:30;;;;;;;15.20;5.70;;;;;;;-5.42;56.95;103106.75;105278;1258;61062;-51
2023/02/07 23:38:58;;;;;;;13.70;5.60;;;;;;;-5.51;57.07;103111.09;105132;1260;73880;-50
2023/02/07 23:41:27;;;;;;;11.40;4.70;;;;;;;-5.62;57.42;103109.91;105200;1260;71299;-51
2023/02/07 23:43:55;;;;;;;13.50;5.30;;;;;;;-5.70;57.62;103110.00;105339;1260;73368;-51
2023/02/07 23:46:25;;;;;;;16.80;6.50;;;;;;;-5.76;57.75;103115.44;105194;1257;61604;-50
2023/02/07 23:48:53;;;;;;;11.50;6.60;;;;;;;-5.81;57.89;103115.96;104979;1262;61268;-50
2023/02/07 23:51:24;;;;;;;15.40;3.90;;;;;;;-5.77;57.87;103123.45;105303;1261;73809;-54
2023/02/07 23:53:52;;;;;;;10.40;3.90;;;;;;;-5.68;57.97;103127.50;105312;1258;71463;-51
2023/02/07 23:56:21;;;;;;;10.90;3.60;;;;;;;-5.59;57.88;103127.95;105262;1257;73487;-50
2023/02/07 23:58:50;;;;;;;15.10;6.00;;;;;;;-5.50;57.83;103134.03;105239;1256;61328;-51
